Terminal Aerodrome Forecast
Issued by NWS Sioux Falls, SD

Home | Current Version | Previous Version | Text Only | Print | Product List | Glossary On
Versions: 1 2 3 4 5 6 7 8 9 10 11 12 13
000
FTUS43 KFSD 212320
TAFHON
TAF
KHON 212320Z 2200/2224 30012KT P6SM SCT090
     FM220500 VRB04KT P6SM SKC
     FM221600 14007KT P6SM SCT250
     FM222200 18013KT P6SM BKN100=

USA.gov is the U.S. government's official web portal to all federal, state and local government web resources and services.